createdAt,value
2023-03-05T00:00:07.901Z,927.14
2023-03-05T00:01:07.944Z,927.15
2023-03-05T00:02:08.095Z,927.15
2023-03-05T00:03:07.821Z,927.15
2023-03-05T00:04:07.889Z,927.15
2023-03-05T00:05:07.892Z,927.16
2023-03-05T00:06:07.924Z,927.16
2023-03-05T00:07:07.884Z,927.18
2023-03-05T00:08:07.848Z,927.17
2023-03-05T00:09:07.815Z,927.21
2023-03-05T00:10:07.797Z,927.23
2023-03-05T00:11:08.274Z,927.26
2023-03-05T00:12:07.779Z,927.30
2023-03-05T00:13:07.733Z,927.32
2023-03-05T00:14:07.828Z,927.35
2023-03-05T00:15:07.739Z,927.39
2023-03-05T00:16:07.764Z,927.43
2023-03-05T00:17:07.837Z,927.45
2023-03-05T00:18:07.713Z,927.47
2023-03-05T00:19:07.718Z,927.48
2023-03-05T00:20:07.777Z,927.50
2023-03-05T00:21:07.683Z,927.51
2023-03-05T00:22:07.732Z,927.50
2023-03-05T00:23:07.692Z,927.51
2023-03-05T00:24:07.700Z,927.51
2023-03-05T00:25:07.667Z,927.50
2023-03-05T00:26:07.729Z,927.47
2023-03-05T00:27:07.611Z,927.46
2023-03-05T00:28:07.562Z,927.45
2023-03-05T00:29:07.579Z,927.46
2023-03-05T00:30:07.625Z,927.46
2023-03-05T00:31:07.664Z,927.49
2023-03-05T00:32:07.661Z,927.51
2023-03-05T00:33:07.517Z,927.50
2023-03-05T00:34:07.565Z,927.49
2023-03-05T00:35:07.862Z,927.49
2023-03-05T00:36:07.556Z,927.50
2023-03-05T00:37:07.591Z,927.47
2023-03-05T00:38:07.573Z,927.49
2023-03-05T00:39:07.438Z,927.50
2023-03-05T00:40:07.470Z,927.51
2023-03-05T00:41:07.807Z,927.46
2023-03-05T00:42:08.178Z,927.46
2023-03-05T00:43:07.425Z,927.43
2023-03-05T00:44:07.422Z,927.46
2023-03-05T00:45:07.436Z,927.42
2023-03-05T00:46:07.408Z,927.40
2023-03-05T00:47:07.434Z,927.39
2023-03-05T00:48:07.438Z,927.39
2023-03-05T00:49:08.300Z,927.33
2023-03-05T00:50:07.327Z,927.32
2023-03-05T00:51:07.468Z,927.34
2023-03-05T00:52:07.383Z,927.33
2023-03-05T00:53:07.344Z,927.29
2023-03-05T00:54:07.397Z,927.30
2023-03-05T00:55:07.362Z,927.27
2023-03-05T00:56:07.264Z,927.28
2023-03-05T00:57:07.270Z,927.30
2023-03-05T00:58:07.319Z,927.30
2023-03-05T00:59:07.327Z,927.34
2023-03-05T01:00:07.322Z,927.37
2023-03-05T01:01:07.295Z,927.42
2023-03-05T01:02:07.230Z,927.38
2023-03-05T01:03:07.244Z,927.34
2023-03-05T01:04:07.236Z,927.27
2023-03-05T01:05:07.302Z,927.27
2023-03-05T01:06:07.262Z,927.30
2023-03-05T01:07:07.229Z,927.34
2023-03-05T01:08:07.126Z,927.32
2023-03-05T01:09:07.138Z,927.30
2023-03-05T01:10:07.144Z,927.26
2023-03-05T01:11:07.189Z,927.24
2023-03-05T01:12:07.091Z,927.26
2023-03-05T01:13:07.156Z,927.26
2023-03-05T01:14:07.106Z,927.25
2023-03-05T01:15:07.168Z,927.26
2023-03-05T01:16:07.215Z,927.20
2023-03-05T01:17:07.035Z,927.19
2023-03-05T01:18:07.129Z,927.17
2023-03-05T01:19:07.087Z,927.16
2023-03-05T01:20:06.994Z,927.14
2023-03-05T01:21:07.040Z,927.16
2023-03-05T01:22:07.057Z,927.16
2023-03-05T01:23:06.953Z,927.12
2023-03-05T01:24:07.062Z,927.11
2023-03-05T01:25:07.074Z,927.05
2023-03-05T01:26:06.965Z,927.03
2023-03-05T01:27:06.974Z,927.00
2023-03-05T01:28:06.946Z,926.98
2023-03-05T01:29:06.993Z,926.97
2023-03-05T01:30:07.369Z,926.99
2023-03-05T01:31:06.927Z,926.98
2023-03-05T01:32:06.968Z,926.97
2023-03-05T01:33:06.927Z,926.95
2023-03-05T01:34:06.876Z,926.97
2023-03-05T01:35:06.925Z,926.99
2023-03-05T01:36:06.889Z,927.00
2023-03-05T01:37:06.949Z,927.01
2023-03-05T01:38:06.802Z,927.02
2023-03-05T01:39:06.805Z,927.03
2023-03-05T01:40:06.812Z,927.03
2023-03-05T01:41:06.882Z,927.03
2023-03-05T01:42:06.790Z,927.03
2023-03-05T01:43:06.729Z,927.03
2023-03-05T01:44:06.735Z,927.00
2023-03-05T01:45:06.797Z,926.99
2023-03-05T01:46:06.804Z,926.99
2023-03-05T01:47:06.757Z,926.99
2023-03-05T01:48:06.714Z,926.99
2023-03-05T01:49:06.723Z,926.98
2023-03-05T01:50:06.680Z,926.96
2023-03-05T01:51:06.736Z,926.92
2023-03-05T01:52:06.642Z,926.92
2023-03-05T01:53:06.695Z,926.92
2023-03-05T01:54:06.650Z,926.91
2023-03-05T01:55:06.707Z,926.92
2023-03-05T01:56:06.675Z,926.90
2023-03-05T01:57:06.750Z,926.88
2023-03-05T01:58:06.579Z,926.89
2023-03-05T01:59:06.582Z,926.86
2023-03-05T02:00:06.641Z,926.86
2023-03-05T02:01:06.684Z,926.86
2023-03-05T02:02:06.601Z,926.86
2023-03-05T02:03:06.866Z,926.86
2023-03-05T02:04:06.593Z,926.87
2023-03-05T02:05:06.528Z,926.87
2023-03-05T02:06:06.631Z,926.86
2023-03-05T02:07:06.591Z,926.85
2023-03-05T02:08:06.492Z,926.84
2023-03-05T02:09:06.493Z,926.84
2023-03-05T02:10:06.454Z,926.84
2023-03-05T02:11:06.505Z,926.85
2023-03-05T02:12:06.511Z,926.85
2023-03-05T02:13:06.525Z,926.84
2023-03-05T02:14:08.433Z,926.85
2023-03-05T02:15:06.536Z,926.86
2023-03-05T02:16:06.462Z,926.85
2023-03-05T02:17:06.404Z,926.82
2023-03-05T02:18:06.454Z,926.79
2023-03-05T02:19:06.457Z,926.77
2023-03-05T02:20:06.367Z,926.75
2023-03-05T02:21:06.370Z,926.76
2023-03-05T02:22:06.375Z,926.77
2023-03-05T02:23:06.380Z,926.77
2023-03-05T02:24:06.401Z,926.77
2023-03-05T02:25:06.338Z,926.75
2023-03-05T02:26:06.405Z,926.74
2023-03-05T02:27:06.328Z,926.73
2023-03-05T02:28:06.255Z,926.73
2023-03-05T02:29:06.266Z,926.73
2023-03-05T02:30:06.282Z,926.75
2023-03-05T02:31:06.280Z,926.78
2023-03-05T02:32:06.508Z,926.80
2023-03-05T02:33:06.246Z,926.82
2023-03-05T02:34:06.204Z,926.84
2023-03-05T02:35:06.271Z,926.85
2023-03-05T02:36:06.272Z,926.84
2023-03-05T02:37:06.179Z,926.83
2023-03-05T02:38:06.178Z,926.81
2023-03-05T02:39:06.125Z,926.78
2023-03-05T02:40:06.134Z,926.78
2023-03-05T02:41:06.197Z,926.78
2023-03-05T02:42:06.144Z,926.79
2023-03-05T02:43:06.117Z,926.80
2023-03-05T02:44:06.066Z,926.79
2023-03-05T02:45:06.115Z,926.78
2023-03-05T02:46:06.194Z,926.77
2023-03-05T02:47:06.094Z,926.74
2023-03-05T02:48:06.095Z,926.74
2023-03-05T02:49:06.071Z,926.74
2023-03-05T02:50:06.002Z,926.75
2023-03-05T02:51:06.056Z,926.76
2023-03-05T02:52:06.010Z,926.77
2023-03-05T02:53:06.014Z,926.76
2023-03-05T02:54:06.081Z,926.74
2023-03-05T02:55:06.003Z,926.72
2023-03-05T02:56:06.020Z,926.71
2023-03-05T02:57:05.989Z,926.73
2023-03-05T02:58:06.267Z,926.74
2023-03-05T02:59:05.965Z,926.77
2023-03-05T03:00:06.070Z,926.81
2023-03-05T03:01:05.995Z,926.83
2023-03-05T03:02:05.936Z,926.85
2023-03-05T03:03:05.918Z,926.85
2023-03-05T03:04:06.810Z,926.83
2023-03-05T03:05:05.896Z,926.82
2023-03-05T03:06:05.873Z,926.81
2023-03-05T03:07:05.812Z,926.80
2023-03-05T03:08:05.812Z,926.78
2023-03-05T03:09:05.818Z,926.76
2023-03-05T03:10:05.892Z,926.75
2023-03-05T03:11:05.836Z,926.75
2023-03-05T03:12:05.805Z,926.73
2023-03-05T03:13:05.752Z,926.72
2023-03-05T03:14:05.752Z,926.71
2023-03-05T03:15:05.750Z,926.70
2023-03-05T03:16:05.797Z,926.69
2023-03-05T03:17:05.823Z,926.67
2023-03-05T03:18:05.758Z,926.65
2023-03-05T03:19:05.739Z,926.64
2023-03-05T03:20:05.762Z,926.63
2023-03-05T03:21:05.700Z,926.64
2023-03-05T03:22:05.776Z,926.65
2023-03-05T03:23:05.787Z,926.65
2023-03-05T03:24:05.704Z,926.64
2023-03-05T03:25:05.904Z,926.63
2023-03-05T03:26:05.703Z,926.62
2023-03-05T03:27:05.682Z,926.60
2023-03-05T03:28:05.645Z,926.57
2023-03-05T03:29:05.647Z,926.55
2023-03-05T03:30:05.603Z,926.54
2023-03-05T03:31:05.647Z,926.54
2023-03-05T03:32:05.658Z,926.55
2023-03-05T03:33:05.642Z,926.56
2023-03-05T03:34:05.629Z,926.56
2023-03-05T03:35:05.588Z,926.56
2023-03-05T03:36:05.598Z,926.57
2023-03-05T03:37:05.565Z,926.58
2023-03-05T03:38:05.513Z,926.60
2023-03-05T03:39:05.522Z,926.60
2023-03-05T03:40:05.584Z,926.61
2023-03-05T03:41:05.478Z,926.62
2023-03-05T03:42:05.535Z,926.64
2023-03-05T03:43:05.492Z,926.67
2023-03-05T03:44:05.497Z,926.70
2023-03-05T03:45:05.460Z,926.74
2023-03-05T03:46:05.480Z,926.76
2023-03-05T03:47:05.424Z,926.78
2023-03-05T03:48:05.476Z,926.80
2023-03-05T03:49:05.486Z,926.81
2023-03-05T03:50:05.380Z,926.82
2023-03-05T03:51:05.388Z,926.81
2023-03-05T03:52:05.404Z,926.81
2023-03-05T03:53:05.373Z,926.81
2023-03-05T03:54:05.469Z,926.82
2023-03-05T03:55:05.422Z,926.83
2023-03-05T03:56:05.405Z,926.83
2023-03-05T03:57:05.388Z,926.83
2023-03-05T03:58:05.406Z,926.82
2023-03-05T03:59:05.299Z,926.82
2023-03-05T04:00:05.369Z,926.82
2023-03-05T04:01:05.257Z,926.82
2023-03-05T04:02:05.369Z,926.82
2023-03-05T04:03:05.273Z,926.83
2023-03-05T04:04:05.352Z,926.83
2023-03-05T04:05:05.244Z,926.84
2023-03-05T04:06:05.361Z,926.85
2023-03-05T04:07:05.371Z,926.86
2023-03-05T04:08:05.270Z,926.87
2023-03-05T04:09:05.270Z,926.89
2023-03-05T04:10:05.280Z,926.90
2023-03-05T04:11:05.192Z,926.93
2023-03-05T04:12:05.186Z,926.94
2023-03-05T04:13:05.167Z,926.94
2023-03-05T04:14:05.162Z,926.91
2023-03-05T04:15:05.151Z,926.86
2023-03-05T04:16:05.161Z,926.81
2023-03-05T04:17:05.120Z,926.77
2023-03-05T04:18:05.130Z,926.73
2023-03-05T04:19:05.135Z,926.69
2023-03-05T04:20:05.145Z,926.65
2023-03-05T04:21:05.185Z,926.62
2023-03-05T04:22:05.132Z,926.61
2023-03-05T04:23:06.061Z,926.61
2023-03-05T04:24:05.018Z,926.61
2023-03-05T04:25:05.010Z,926.62
2023-03-05T04:26:05.087Z,926.60
2023-03-05T04:27:05.018Z,926.60
2023-03-05T04:28:05.096Z,926.59
2023-03-05T04:29:05.068Z,926.59
2023-03-05T04:30:04.976Z,926.60
2023-03-05T04:31:05.112Z,926.62
2023-03-05T04:32:05.030Z,926.63
2023-03-05T04:33:04.950Z,926.64
2023-03-05T04:34:04.899Z,926.63
2023-03-05T04:35:05.006Z,926.62
2023-03-05T04:36:04.910Z,926.61
2023-03-05T04:37:04.918Z,926.59
2023-03-05T04:38:04.954Z,926.58
2023-03-05T04:39:04.970Z,926.57
2023-03-05T04:40:04.940Z,926.59
2023-03-05T04:41:04.899Z,926.62
2023-03-05T04:42:04.945Z,926.64
2023-03-05T04:43:04.856Z,926.64
2023-03-05T04:44:04.856Z,926.65
2023-03-05T04:45:04.873Z,926.66
2023-03-05T04:46:04.875Z,926.67
2023-03-05T04:47:04.832Z,926.68
2023-03-05T04:48:04.785Z,926.70
2023-03-05T04:49:04.800Z,926.70
2023-03-05T04:50:04.840Z,926.72
2023-03-05T04:51:04.734Z,926.74
2023-03-05T04:52:04.746Z,926.77
2023-03-05T04:53:04.724Z,926.79
2023-03-05T04:54:04.806Z,926.83
2023-03-05T04:55:04.833Z,926.84
2023-03-05T04:56:04.741Z,926.87
2023-03-05T04:57:04.748Z,926.89
2023-03-05T04:58:04.718Z,926.91
2023-03-05T04:59:04.721Z,926.94
2023-03-05T05:00:04.722Z,926.95
2023-03-05T05:01:04.692Z,926.97
2023-03-05T05:02:04.683Z,926.98
2023-03-05T05:03:04.683Z,927.00
2023-03-05T05:04:04.599Z,927.01
2023-03-05T05:05:04.656Z,927.01
2023-03-05T05:06:04.601Z,927.02
2023-03-05T05:07:04.603Z,927.04
2023-03-05T05:08:04.571Z,927.04
2023-03-05T05:09:04.580Z,927.05
2023-03-05T05:10:04.623Z,927.05
2023-03-05T05:11:04.616Z,927.09
2023-03-05T05:12:04.607Z,927.11
2023-03-05T05:13:04.624Z,927.09
2023-03-05T05:14:04.979Z,927.09
2023-03-05T05:15:04.566Z,927.09
2023-03-05T05:16:04.553Z,927.08
2023-03-05T05:17:04.533Z,927.07
2023-03-05T05:18:04.480Z,927.04
2023-03-05T05:19:04.545Z,927.05
2023-03-05T05:20:04.495Z,927.05
2023-03-05T05:21:04.402Z,926.96
2023-03-05T05:22:04.508Z,926.97
2023-03-05T05:23:04.498Z,926.98
2023-03-05T05:24:04.374Z,926.93
2023-03-05T05:25:04.634Z,926.95
2023-03-05T05:26:04.433Z,926.90
2023-03-05T05:27:04.423Z,926.86
2023-03-05T05:28:04.445Z,926.87
2023-03-05T05:29:04.413Z,926.83
2023-03-05T05:30:04.324Z,926.80
2023-03-05T05:31:04.569Z,926.82
2023-03-05T05:32:04.428Z,926.79
2023-03-05T05:33:05.359Z,926.77
2023-03-05T05:34:04.367Z,926.77
2023-03-05T05:35:04.288Z,926.79
2023-03-05T05:36:04.281Z,926.75
2023-03-05T05:37:04.261Z,926.72
2023-03-05T05:38:04.391Z,926.71
2023-03-05T05:39:04.301Z,926.67
2023-03-05T05:40:04.300Z,926.63
2023-03-05T05:41:04.212Z,926.62
2023-03-05T05:42:04.191Z,926.60
2023-03-05T05:43:04.223Z,926.56
2023-03-05T05:44:04.208Z,926.55
2023-03-05T05:45:04.179Z,926.50
2023-03-05T05:46:04.508Z,926.49
2023-03-05T05:47:04.152Z,926.46
2023-03-05T05:48:04.181Z,926.46
2023-03-05T05:49:04.161Z,926.45
2023-03-05T05:50:04.112Z,926.45
2023-03-05T05:51:04.120Z,926.46
2023-03-05T05:52:04.194Z,926.41
2023-03-05T05:53:04.854Z,926.39
2023-03-05T05:54:04.096Z,926.35
2023-03-05T05:55:04.105Z,926.32
2023-03-05T05:56:04.113Z,926.26
2023-03-05T05:57:04.063Z,926.25
2023-03-05T05:58:04.064Z,926.23
2023-03-05T05:59:04.139Z,926.20
2023-03-05T06:00:04.049Z,926.16
2023-03-05T06:01:04.084Z,926.16
2023-03-05T06:02:03.993Z,926.17
2023-03-05T06:03:04.126Z,926.17
2023-03-05T06:04:04.009Z,926.15
2023-03-05T06:05:03.963Z,926.17
2023-03-05T06:06:03.984Z,926.12
2023-03-05T06:07:03.913Z,926.12
2023-03-05T06:08:03.941Z,926.11
2023-03-05T06:09:03.929Z,926.07
2023-03-05T06:10:03.944Z,926.07
2023-03-05T06:11:03.848Z,926.05
2023-03-05T06:12:03.859Z,926.04
2023-03-05T06:13:03.869Z,926.02
2023-03-05T06:14:03.864Z,926.01
2023-03-05T06:15:03.957Z,925.97
2023-03-05T06:16:04.157Z,925.94
2023-03-05T06:17:03.849Z,925.92
2023-03-05T06:18:03.845Z,925.92
2023-03-05T06:19:04.412Z,925.88
2023-03-05T06:20:03.815Z,925.84
2023-03-05T06:21:03.819Z,925.81
2023-03-05T06:22:03.876Z,925.80
2023-03-05T06:23:03.734Z,925.78
2023-03-05T06:24:03.726Z,925.79
2023-03-05T06:25:03.739Z,925.75
2023-03-05T06:26:03.805Z,925.74
2023-03-05T06:27:03.799Z,925.73
2023-03-05T06:28:03.721Z,925.68
2023-03-05T06:29:03.666Z,925.63
2023-03-05T06:30:03.677Z,925.60
2023-03-05T06:31:03.735Z,925.57
2023-03-05T06:32:03.763Z,925.56
2023-03-05T06:33:03.649Z,925.55
2023-03-05T06:34:03.782Z,925.56
2023-03-05T06:35:03.604Z,925.55
2023-03-05T06:36:03.614Z,925.54
2023-03-05T06:37:03.626Z,925.54
2023-03-05T06:38:03.697Z,925.52
2023-03-05T06:39:03.690Z,925.47
2023-03-05T06:40:03.541Z,925.37
2023-03-05T06:41:03.539Z,925.29
2023-03-05T06:42:03.543Z,925.25
2023-03-05T06:43:03.619Z,925.20
2023-03-05T06:44:03.609Z,925.15
2023-03-05T06:45:03.555Z,925.11
2023-03-05T06:46:03.596Z,925.07
2023-03-05T06:47:03.552Z,925.01
2023-03-05T06:48:03.551Z,924.95
2023-03-05T06:49:03.487Z,924.93
2023-03-05T06:50:03.544Z,924.85
2023-03-05T06:51:03.927Z,924.77
2023-03-05T06:52:03.458Z,924.71
2023-03-05T06:53:03.404Z,924.64
2023-03-05T06:54:03.495Z,924.57
2023-03-05T06:55:03.424Z,924.57
2023-03-05T06:56:03.444Z,924.60
2023-03-05T06:57:03.433Z,924.63
2023-03-05T06:58:03.350Z,924.66
2023-03-05T06:59:03.352Z,924.61
2023-03-05T07:00:03.352Z,924.59
2023-03-05T07:01:03.521Z,924.60
2023-03-05T07:02:03.403Z,924.61
2023-03-05T07:03:03.441Z,924.66
2023-03-05T07:04:03.401Z,924.62
2023-03-05T07:05:03.296Z,924.59
2023-03-05T07:06:03.344Z,924.54
2023-03-05T07:07:03.299Z,924.53
2023-03-05T07:08:03.322Z,924.48
2023-03-05T07:09:03.272Z,924.42
2023-03-05T07:10:03.220Z,924.36
2023-03-05T07:11:03.315Z,924.37
2023-03-05T07:12:03.245Z,924.39
2023-03-05T07:13:03.402Z,924.34
2023-03-05T07:14:03.239Z,924.31
2023-03-05T07:15:03.259Z,924.26
2023-03-05T07:16:03.275Z,924.26
2023-03-05T07:17:03.221Z,924.28
2023-03-05T07:18:03.890Z,924.24
2023-03-05T07:19:03.267Z,924.21
2023-03-05T07:20:03.195Z,924.20
2023-03-05T07:21:03.173Z,924.16
2023-03-05T07:22:03.158Z,924.17
2023-03-05T07:23:03.111Z,924.18
2023-03-05T07:24:03.125Z,924.17
2023-03-05T07:25:03.116Z,924.16
2023-03-05T07:26:03.183Z,924.16
2023-03-05T07:27:03.245Z,924.14
2023-03-05T07:28:03.043Z,924.12
2023-03-05T07:29:03.086Z,924.12
2023-03-05T07:30:03.112Z,924.12
2023-03-05T07:31:03.163Z,924.10
2023-03-05T07:32:03.138Z,924.10
2023-03-05T07:33:03.036Z,924.07
2023-03-05T07:34:02.982Z,924.04
2023-03-05T07:35:03.059Z,924.04
2023-03-05T07:36:03.055Z,924.03
2023-03-05T07:37:03.004Z,924.02
2023-03-05T07:38:02.984Z,924.00
2023-03-05T07:39:02.970Z,924.00
2023-03-05T07:40:02.981Z,923.99
2023-03-05T07:41:02.932Z,923.99
2023-03-05T07:42:02.998Z,923.98
2023-03-05T07:43:02.906Z,923.96
2023-03-05T07:44:02.921Z,923.96
2023-03-05T07:45:03.009Z,923.95
2023-03-05T07:46:02.961Z,923.93
2023-03-05T07:47:03.388Z,923.94
2023-03-05T07:48:02.872Z,923.93
2023-03-05T07:49:02.884Z,923.94
2023-03-05T07:50:02.943Z,923.91
2023-03-05T07:51:02.855Z,923.91
2023-03-05T07:52:02.796Z,923.91
2023-03-05T07:53:02.869Z,923.94
2023-03-05T07:54:02.773Z,923.94
2023-03-05T07:55:02.822Z,923.92
2023-03-05T07:56:02.814Z,923.90
2023-03-05T07:57:02.735Z,923.90
2023-03-05T07:58:02.737Z,923.91
2023-03-05T07:59:02.748Z,923.93
2023-03-05T08:00:02.762Z,923.96
2023-03-05T08:01:02.737Z,923.99
2023-03-05T08:02:02.731Z,924.00
2023-03-05T08:03:02.753Z,924.00
2023-03-05T08:04:02.688Z,924.00
2023-03-05T08:05:02.743Z,924.00
2023-03-05T08:06:02.752Z,924.00
2023-03-05T08:07:02.654Z,924.01
2023-03-05T08:08:02.669Z,924.01
2023-03-05T08:09:02.611Z,924.05
2023-03-05T08:10:02.683Z,924.08
2023-03-05T08:11:04.348Z,924.10
2023-03-05T08:12:02.694Z,924.12
2023-03-05T08:13:02.594Z,924.14
2023-03-05T08:14:02.605Z,924.13
2023-03-05T08:15:02.603Z,924.15
2023-03-05T08:16:02.674Z,924.16
2023-03-05T08:17:03.440Z,924.17
2023-03-05T08:18:02.627Z,924.21
2023-03-05T08:19:03.454Z,924.27
2023-03-05T08:20:02.515Z,924.31
2023-03-05T08:21:02.545Z,924.34
2023-03-05T08:22:02.562Z,924.36
2023-03-05T08:23:02.559Z,924.37
2023-03-05T08:24:02.545Z,924.38
2023-03-05T08:25:02.586Z,924.38
2023-03-05T08:26:02.478Z,924.38
2023-03-05T08:27:02.485Z,924.41
2023-03-05T08:28:02.497Z,924.41
2023-03-05T08:29:02.485Z,924.44
2023-03-05T08:30:02.483Z,924.44
2023-03-05T08:31:02.452Z,924.45
2023-03-05T08:32:02.413Z,924.43
2023-03-05T08:33:02.447Z,924.39
2023-03-05T08:34:02.411Z,924.39
2023-03-05T08:35:02.441Z,924.34
2023-03-05T08:36:02.458Z,924.33
2023-03-05T08:37:02.332Z,924.31
2023-03-05T08:38:02.333Z,924.32
2023-03-05T08:39:02.340Z,924.32
2023-03-05T08:40:02.290Z,924.36
2023-03-05T08:41:02.350Z,924.40
2023-03-05T08:42:02.276Z,924.41
2023-03-05T08:43:02.296Z,924.43
2023-03-05T08:44:02.310Z,924.47
2023-03-05T08:45:02.292Z,924.47
2023-03-05T08:46:02.495Z,924.47
2023-03-05T08:47:02.295Z,924.48
2023-03-05T08:48:02.201Z,924.46
2023-03-05T08:49:02.211Z,924.50
2023-03-05T08:50:02.219Z,924.47
2023-03-05T08:51:02.221Z,924.49
2023-03-05T08:52:02.124Z,924.49
2023-03-05T08:53:02.130Z,924.50
2023-03-05T08:54:02.094Z,924.55
2023-03-05T08:55:02.155Z,924.55
2023-03-05T08:56:02.150Z,924.59
2023-03-05T08:57:02.064Z,924.61
2023-03-05T08:58:02.088Z,924.65
2023-03-05T08:59:02.081Z,924.66
2023-03-05T09:00:02.076Z,924.66
2023-03-05T09:01:02.083Z,924.64
2023-03-05T09:02:02.195Z,924.62
2023-03-05T09:03:02.096Z,924.60
2023-03-05T09:04:02.010Z,924.59
2023-03-05T09:05:02.011Z,924.59
2023-03-05T09:06:01.986Z,924.62
2023-03-05T09:07:01.959Z,924.60
2023-03-05T09:08:02.026Z,924.63
2023-03-05T09:09:01.981Z,924.61
2023-03-05T09:10:01.981Z,924.61
2023-03-05T09:11:02.049Z,924.62
2023-03-05T09:12:01.908Z,924.63
2023-03-05T09:13:01.999Z,924.65
2023-03-05T09:14:01.860Z,924.66
2023-03-05T09:15:01.915Z,924.67
2023-03-05T09:16:01.923Z,924.67
2023-03-05T09:17:01.990Z,924.69
2023-03-05T09:18:01.895Z,924.71
2023-03-05T09:19:01.805Z,924.71
2023-03-05T09:20:01.809Z,924.70
2023-03-05T09:21:01.809Z,924.69
2023-03-05T09:22:01.760Z,924.68
2023-03-05T09:23:01.824Z,924.72
2023-03-05T09:24:01.770Z,924.71
2023-03-05T09:25:01.736Z,924.73
2023-03-05T09:26:01.789Z,924.73
2023-03-05T09:27:01.782Z,924.73
2023-03-05T09:28:01.779Z,924.71
2023-03-05T09:29:01.798Z,924.72
2023-03-05T09:30:01.820Z,924.71
2023-03-05T09:31:01.872Z,924.70
2023-03-05T09:32:01.807Z,924.68
2023-03-05T09:33:01.888Z,924.66
2023-03-05T09:34:01.738Z,924.65
2023-03-05T09:35:02.562Z,924.66
2023-03-05T09:36:01.760Z,924.68
2023-03-05T09:37:01.830Z,924.68
2023-03-05T09:38:01.632Z,924.69
2023-03-05T09:39:01.664Z,924.68
2023-03-05T09:40:01.677Z,924.66
2023-03-05T09:41:01.678Z,924.65
2023-03-05T09:42:01.638Z,924.67
2023-03-05T09:43:01.562Z,924.66
2023-03-05T09:44:01.506Z,924.67
2023-03-05T09:45:01.560Z,924.67
2023-03-05T09:46:01.619Z,924.69
2023-03-05T09:47:01.527Z,924.72
2023-03-05T09:48:01.531Z,924.73
2023-03-05T09:49:01.534Z,924.70
2023-03-05T09:50:01.539Z,924.68
2023-03-05T09:51:01.604Z,924.68
2023-03-05T09:52:01.502Z,924.68
2023-03-05T09:53:01.510Z,924.67
2023-03-05T09:54:03.069Z,924.68
2023-03-05T09:55:01.520Z,924.67
2023-03-05T09:56:01.379Z,924.68
2023-03-05T09:57:01.430Z,924.66
2023-03-05T09:58:01.397Z,924.67
2023-03-05T09:59:01.400Z,924.66
2023-03-05T10:00:01.537Z,924.65
2023-03-05T10:01:01.478Z,924.67
2023-03-05T10:02:01.368Z,924.67
2023-03-05T10:03:01.396Z,924.66
2023-03-05T10:04:01.585Z,924.67
2023-03-05T10:05:01.388Z,924.67
2023-03-05T10:06:01.490Z,924.70
2023-03-05T10:07:01.297Z,924.71
2023-03-05T10:08:01.306Z,924.75
2023-03-05T10:09:01.265Z,924.74
2023-03-05T10:10:01.326Z,924.75
2023-03-05T10:11:01.284Z,924.79
2023-03-05T10:12:01.336Z,924.80
2023-03-05T10:13:01.344Z,924.79
2023-03-05T10:14:01.237Z,924.80
2023-03-05T10:15:01.252Z,924.81
2023-03-05T10:16:01.559Z,924.82
2023-03-05T10:17:01.268Z,924.84
2023-03-05T10:18:01.223Z,924.87
2023-03-05T10:19:01.130Z,924.88
2023-03-05T10:20:01.191Z,924.86
2023-03-05T10:21:01.144Z,924.85
2023-03-05T10:22:01.156Z,924.85
2023-03-05T10:23:01.195Z,924.84
2023-03-05T10:24:01.174Z,924.92
2023-03-05T10:25:01.115Z,924.97
2023-03-05T10:26:01.122Z,925.01
2023-03-05T10:27:03.209Z,925.06
2023-03-05T10:28:01.141Z,925.09
2023-03-05T10:29:01.159Z,925.11
2023-03-05T10:30:01.151Z,925.14
2023-03-05T10:31:01.044Z,925.13
2023-03-05T10:32:01.143Z,925.14
2023-03-05T10:33:01.592Z,925.11
2023-03-05T10:34:01.175Z,925.13
2023-03-05T10:35:01.079Z,925.10
2023-03-05T10:36:00.990Z,925.11
2023-03-05T10:37:00.991Z,925.12
2023-03-05T10:38:00.984Z,925.15
2023-03-05T10:39:01.005Z,925.16
2023-03-05T10:40:01.010Z,925.19
2023-03-05T10:41:01.057Z,925.22
2023-03-05T10:42:00.941Z,925.24
2023-03-05T10:43:00.941Z,925.25
2023-03-05T10:44:00.952Z,925.26
2023-03-05T10:45:00.952Z,925.27
2023-03-05T10:46:01.047Z,925.27
2023-03-05T10:47:00.965Z,925.28
2023-03-05T10:48:01.704Z,925.28
2023-03-05T10:49:00.881Z,925.28
2023-03-05T10:50:00.872Z,925.28
2023-03-05T10:51:00.901Z,925.27
2023-03-05T10:52:01.107Z,925.24
2023-03-05T10:53:00.905Z,925.20
2023-03-05T10:54:00.802Z,925.19
2023-03-05T10:55:00.817Z,925.17
2023-03-05T10:56:00.825Z,925.18
2023-03-05T10:57:00.829Z,925.24
2023-03-05T10:58:01.050Z,925.27
2023-03-05T10:59:00.752Z,925.32
2023-03-05T11:00:00.743Z,925.33
2023-03-05T11:01:00.784Z,925.32
2023-03-05T11:02:00.761Z,925.35
2023-03-05T11:03:00.760Z,925.39
2023-03-05T11:04:00.780Z,925.39
2023-03-05T11:05:00.778Z,925.38
2023-03-05T11:06:00.683Z,925.38
2023-03-05T11:07:00.685Z,925.41
2023-03-05T11:08:00.687Z,925.42
2023-03-05T11:09:00.699Z,925.44
2023-03-05T11:10:00.713Z,925.42
2023-03-05T11:11:02.843Z,925.48
2023-03-05T11:12:00.615Z,925.51
2023-03-05T11:13:00.620Z,925.50
2023-03-05T11:14:00.684Z,925.48
2023-03-05T11:15:00.627Z,925.51
2023-03-05T11:16:01.203Z,925.52
2023-03-05T11:17:00.538Z,925.50
2023-03-05T11:18:00.564Z,925.51
2023-03-05T11:19:00.545Z,925.52
2023-03-05T11:20:00.677Z,925.53
2023-03-05T11:21:00.557Z,925.57
2023-03-05T11:22:00.596Z,925.59
2023-03-05T11:23:00.471Z,925.58
2023-03-05T11:24:00.481Z,925.65
2023-03-05T11:25:00.502Z,925.61
2023-03-05T11:26:00.498Z,925.60
2023-03-05T11:27:00.452Z,925.62
2023-03-05T11:28:00.509Z,925.64
2023-03-05T11:29:00.405Z,925.63
2023-03-05T11:30:00.411Z,925.64
2023-03-05T11:31:00.484Z,925.67
2023-03-05T11:32:00.459Z,925.66
2023-03-05T11:33:00.386Z,925.64
2023-03-05T11:34:00.458Z,925.66
2023-03-05T11:35:00.353Z,925.64
2023-03-05T11:36:00.427Z,925.67
2023-03-05T11:37:00.371Z,925.71
2023-03-05T11:38:00.320Z,925.68
2023-03-05T11:39:00.366Z,925.67
2023-03-05T11:40:00.391Z,925.65
2023-03-05T11:41:00.231Z,925.66
2023-03-05T11:42:00.251Z,925.64
2023-03-05T11:43:00.293Z,925.66
2023-03-05T11:44:00.310Z,925.68
2023-03-05T11:45:00.264Z,925.68
2023-03-05T11:46:00.247Z,925.68
2023-03-05T11:47:00.224Z,925.67
2023-03-05T11:48:00.237Z,925.70
2023-03-05T11:49:00.549Z,925.69
2023-03-05T11:50:00.199Z,925.70
2023-03-05T11:51:00.248Z,925.72
2023-03-05T11:52:00.158Z,925.77
2023-03-05T11:53:00.120Z,925.81
2023-03-05T11:54:00.130Z,925.82
2023-03-05T11:55:00.185Z,925.84
2023-03-05T11:56:00.203Z,925.86
2023-03-05T11:57:00.146Z,925.89
2023-03-05T11:58:00.047Z,925.89
2023-03-05T11:59:00.104Z,925.92
2023-03-05T12:00:00.067Z,925.94
2023-03-05T12:01:00.648Z,925.96
2023-03-05T12:02:00.118Z,925.95
2023-03-05T12:03:00.152Z,925.97
2023-03-05T12:04:00.168Z,925.98
2023-03-05T12:05:00.064Z,925.98
2023-03-05T12:06:00.055Z,925.97
2023-03-05T12:07:00.057Z,925.98
2023-03-05T12:08:00.136Z,926.01
2023-03-05T12:09:00.089Z,925.96
2023-03-05T12:09:59.924Z,925.97
2023-03-05T12:10:59.989Z,925.97
2023-03-05T12:11:59.991Z,925.98
2023-03-05T12:13:00.004Z,925.96
2023-03-05T12:14:00.012Z,925.97
2023-03-05T12:15:00.012Z,925.90
2023-03-05T12:16:00.031Z,925.96
2023-03-05T12:16:59.925Z,925.94
2023-03-05T12:17:59.932Z,925.94
2023-03-05T12:18:59.892Z,926.00
2023-03-05T12:19:59.897Z,926.00
2023-03-05T12:21:00.577Z,925.96
2023-03-05T12:21:59.813Z,926.01
2023-03-05T12:22:59.872Z,926.03
2023-03-05T12:23:59.813Z,925.97
2023-03-05T12:24:59.826Z,925.99
2023-03-05T12:26:00.139Z,926.05
2023-03-05T12:26:59.894Z,925.97
2023-03-05T12:27:59.739Z,925.94